createdAt,value
2019-01-25T00:04:18.030Z,99597.86
2019-01-25T00:07:28.347Z,99599.63
2019-01-25T00:10:18.900Z,99599.63
2019-01-25T00:18:18.778Z,99604.30
2019-01-25T00:20:49.665Z,99602.05
2019-01-25T00:26:28.163Z,99600.21
2019-01-25T00:34:47.730Z,99595.72
2019-01-25T00:37:18.127Z,99598.70
2019-01-25T00:40:07.071Z,99596.00
2019-01-25T00:42:56.567Z,99600.08
2019-01-25T00:45:26.903Z,99611.98
2019-01-25T00:47:57.233Z,99611.49
2019-01-25T00:50:28.302Z,99609.05
2019-01-25T00:52:59.347Z,99607.64
2019-01-25T00:55:29.612Z,99609.17
2019-01-25T00:58:18.942Z,99606.06
2019-01-25T01:00:49.343Z,99608.38
2019-01-25T01:03:19.632Z,99616.97
2019-01-25T01:05:52.553Z,99613.23
2019-01-25T01:08:42.264Z,99614.06
2019-01-25T01:11:12.529Z,99609.84
2019-01-25T01:13:42.822Z,99615.42
2019-01-25T01:16:15.843Z,99625.54
2019-01-25T01:19:25.278Z,99618.14
2019-01-25T01:21:55.645Z,99621.37
2019-01-25T01:24:27.000Z,99618.22
2019-01-25T01:27:28.546Z,99615.71
2019-01-25T01:33:24.161Z,99630.73
2019-01-25T01:35:47.467Z,99624.73
2019-01-25T01:38:17.768Z,99622.86
2019-01-25T01:41:06.954Z,99626.31
2019-01-25T01:43:37.293Z,99630.40
2019-01-25T01:46:26.237Z,99626.00
2019-01-25T01:51:55.905Z,99621.25
2019-01-25T01:54:26.136Z,99620.16
2019-01-25T01:56:56.326Z,99617.48
2019-01-25T01:59:48.723Z,99616.72
2019-01-25T02:02:30.688Z,99616.13
2019-01-25T02:08:21.154Z,99615.80
2019-01-25T02:17:15.072Z,99622.20
2019-01-25T02:19:58.757Z,99620.51
2019-01-25T02:22:35.140Z,99620.51
2019-01-25T02:28:07.499Z,99611.00
2019-01-25T02:36:35.928Z,99605.06
2019-01-25T02:39:25.166Z,99597.32
2019-01-25T02:45:15.682Z,99600.98
2019-01-25T02:56:12.859Z,99613.53
2019-01-25T02:58:43.896Z,99618.00
2019-01-25T03:03:57.592Z,99613.34
2019-01-25T03:09:49.158Z,99616.18
2019-01-25T03:15:29.362Z,99623.23
2019-01-25T03:18:01.909Z,99616.91
2019-01-25T03:20:57.648Z,99618.80
2019-01-25T03:26:34.439Z,99616.50
2019-01-25T03:29:23.901Z,99617.08
2019-01-25T03:31:54.418Z,99611.92
2019-01-25T03:34:45.126Z,99613.75
2019-01-25T03:43:26.148Z,99617.91
2019-01-25T03:46:51.082Z,99618.46
2019-01-25T03:49:15.747Z,99620.42
2019-01-25T03:54:49.111Z,99626.75
2019-01-25T04:00:02.126Z,99625.25
2019-01-25T04:02:32.369Z,99625.88
2019-01-25T04:05:02.647Z,99628.47
2019-01-25T04:07:44.958Z,99623.78
2019-01-25T04:13:13.892Z,99618.52
2019-01-25T04:16:04.320Z,99622.69
2019-01-25T04:18:34.581Z,99623.39
2019-01-25T04:21:05.728Z,99617.92
2019-01-25T04:23:35.985Z,99620.02
2019-01-25T04:26:26.167Z,99614.84
2019-01-25T04:31:48.079Z,99626.23
2019-01-25T04:34:38.153Z,99631.28
2019-01-25T04:37:08.511Z,99624.03
2019-01-25T04:39:58.515Z,99629.08
2019-01-25T04:42:28.756Z,99630.58
2019-01-25T04:45:00.028Z,99633.41
2019-01-25T04:47:49.341Z,99632.89
2019-01-25T04:50:22.041Z,99632.22
2019-01-25T04:52:53.163Z,99633.84
2019-01-25T04:55:43.463Z,99642.20
2019-01-25T04:58:15.832Z,99642.20
2019-01-25T05:01:24.869Z,99644.52
2019-01-25T05:04:14.916Z,99644.52
2019-01-25T05:06:48.306Z,99640.04
2019-01-25T05:09:37.314Z,99648.19
2019-01-25T05:14:49.599Z,99648.70
2019-01-25T05:17:20.716Z,99649.79
2019-01-25T05:20:09.978Z,99644.25
2019-01-25T05:22:40.433Z,99649.48
2019-01-25T05:25:11.436Z,99654.75
2019-01-25T05:27:44.159Z,99654.55
2019-01-25T05:30:34.255Z,99658.31
2019-01-25T05:33:24.339Z,99665.77
2019-01-25T05:44:27.767Z,99658.02
2019-01-25T05:49:51.072Z,99654.53
2019-01-25T05:52:40.840Z,99652.63
2019-01-25T05:55:29.200Z,99663.77
2019-01-25T05:57:50.716Z,99654.30
2019-01-25T06:01:01.947Z,99656.94
2019-01-25T06:03:33.020Z,99656.94
2019-01-25T06:06:06.197Z,99652.99
2019-01-25T06:08:56.357Z,99656.05
2019-01-25T06:11:27.451Z,99665.33
2019-01-25T06:13:58.564Z,99676.23
2019-01-25T06:16:49.980Z,99684.25
2019-01-25T06:19:39.686Z,99687.86
2019-01-25T06:22:30.061Z,99680.24
2019-01-25T06:25:13.216Z,99680.24
2019-01-25T06:28:17.916Z,99686.72
2019-01-25T06:31:08.392Z,99695.64
2019-01-25T06:34:17.158Z,99704.81
2019-01-25T06:37:07.418Z,99702.73
2019-01-25T06:39:37.779Z,99712.19
2019-01-25T06:45:00.401Z,99695.98
2019-01-25T06:48:10.978Z,99695.98
2019-01-25T06:51:00.703Z,99707.99
2019-01-25T06:59:22.811Z,99718.16
2019-01-25T07:02:12.570Z,99721.64
2019-01-25T07:04:42.885Z,99713.52
2019-01-25T07:10:03.379Z,99724.30
2019-01-25T07:12:55.016Z,99717.95
2019-01-25T07:15:28.066Z,99728.73
2019-01-25T07:21:01.370Z,99722.53
2019-01-25T07:23:51.397Z,99729.06
2019-01-25T07:26:37.400Z,99731.12
2019-01-25T07:29:09.251Z,99740.30
2019-01-25T07:31:39.573Z,99714.59
2019-01-25T07:34:12.342Z,99735.34
2019-01-25T07:36:43.682Z,99735.80
2019-01-25T07:39:34.129Z,99744.00
2019-01-25T07:42:05.327Z,99748.81
2019-01-25T07:44:36.625Z,99744.99
2019-01-25T07:47:07.968Z,99737.69
2019-01-25T07:49:38.251Z,99741.52
2019-01-25T07:52:50.305Z,99749.33
2019-01-25T07:55:21.513Z,99764.22
2019-01-25T08:01:08.897Z,99751.17
2019-01-25T08:03:40.039Z,99755.14
2019-01-25T08:06:14.215Z,99753.91
2019-01-25T08:08:59.886Z,99726.63
2019-01-25T08:11:45.117Z,99726.63
2019-01-25T08:14:05.251Z,99747.91
2019-01-25T08:16:36.407Z,99746.19
2019-01-25T08:19:26.245Z,99758.86
2019-01-25T08:22:08.908Z,99756.98
2019-01-25T08:30:33.155Z,99770.28
2019-01-25T08:36:24.718Z,99774.55
2019-01-25T08:38:56.029Z,99774.60
2019-01-25T08:41:29.989Z,99770.13
2019-01-25T08:44:05.958Z,99776.77
2019-01-25T08:52:37.182Z,99779.99
2019-01-25T08:55:29.844Z,99779.99
2019-01-25T08:58:19.078Z,99776.84
2019-01-25T09:00:43.012Z,99773.27
2019-01-25T09:03:14.832Z,99772.69
2019-01-25T09:06:21.219Z,99774.58
2019-01-25T09:18:36.083Z,99794.08
2019-01-25T09:21:28.545Z,99801.19
2019-01-25T09:24:30.758Z,99797.96
2019-01-25T09:27:43.318Z,99793.91
2019-01-25T09:30:23.306Z,99791.59
2019-01-25T09:32:54.516Z,99797.58
2019-01-25T09:38:49.341Z,99802.41
2019-01-25T09:44:29.392Z,99805.30
2019-01-25T09:47:17.311Z,99806.02
2019-01-25T09:49:48.231Z,99808.29
2019-01-25T09:52:22.006Z,99810.53
2019-01-25T09:54:59.678Z,99806.20
2019-01-25T09:57:52.299Z,99799.79
2019-01-25T10:04:04.569Z,99810.34
2019-01-25T10:06:53.970Z,99805.94
2019-01-25T10:09:45.360Z,99811.86
2019-01-25T10:12:43.069Z,99808.18
2019-01-25T10:15:47.260Z,99806.83
2019-01-25T10:18:40.122Z,99813.72
2019-01-25T10:21:30.501Z,99817.34
2019-01-25T10:24:14.968Z,99808.76
2019-01-25T10:27:05.465Z,99808.76
2019-01-25T10:29:36.743Z,99815.16
2019-01-25T10:35:47.541Z,99805.68
2019-01-25T10:41:10.878Z,99803.34
2019-01-25T10:43:41.596Z,99792.08
2019-01-25T10:46:12.725Z,99796.75
2019-01-25T10:48:44.493Z,99792.36
2019-01-25T10:51:37.342Z,99786.73
2019-01-25T10:57:17.869Z,99766.89
2019-01-25T10:59:49.933Z,99766.89
2019-01-25T11:02:24.042Z,99768.45
2019-01-25T11:05:34.263Z,99769.62
2019-01-25T11:08:05.157Z,99768.31
2019-01-25T11:13:31.427Z,99762.73
2019-01-25T11:16:42.186Z,99765.20
2019-01-25T11:22:27.590Z,99770.80
2019-01-25T11:25:01.752Z,99765.61
2019-01-25T11:27:36.371Z,99770.56
2019-01-25T11:30:29.152Z,99765.59
2019-01-25T11:33:00.920Z,99765.26
2019-01-25T11:35:44.217Z,99763.30
2019-01-25T11:38:25.330Z,99763.88
2019-01-25T11:41:15.707Z,99766.39
2019-01-25T11:46:40.042Z,99765.37
2019-01-25T11:53:19.172Z,99759.66
2019-01-25T11:55:53.446Z,99765.78
2019-01-25T11:58:38.697Z,99769.17
2019-01-25T12:04:22.336Z,99777.63
2019-01-25T12:07:27.651Z,99778.27
2019-01-25T12:16:10.335Z,99775.82
2019-01-25T12:19:03.446Z,99768.64
2019-01-25T12:21:47.311Z,99759.53
2019-01-25T12:24:33.474Z,99759.53
2019-01-25T12:26:54.448Z,99763.95
2019-01-25T12:29:28.320Z,99767.78
2019-01-25T12:32:37.289Z,99757.29
2019-01-25T12:35:48.868Z,99749.78
2019-01-25T12:41:29.286Z,99753.97
2019-01-25T12:44:38.480Z,99750.11
2019-01-25T12:47:10.015Z,99746.28
2019-01-25T12:50:00.555Z,99743.70
2019-01-25T12:53:10.905Z,99728.71
2019-01-25T12:58:43.146Z,99736.48
2019-01-25T13:04:28.172Z,99747.83
2019-01-25T13:07:19.255Z,99746.98
2019-01-25T13:09:51.083Z,99741.80
2019-01-25T13:12:25.198Z,99742.48
2019-01-25T13:14:55.627Z,99749.08
2019-01-25T13:17:45.944Z,99749.91
2019-01-25T13:21:01.442Z,99744.64
2019-01-25T13:23:16.238Z,99749.17
2019-01-25T13:29:32.837Z,99766.64
2019-01-25T13:32:19.119Z,99750.98
2019-01-25T13:35:10.028Z,99741.36
2019-01-25T13:38:21.493Z,99751.63
2019-01-25T13:40:55.620Z,99748.80
2019-01-25T13:46:58.767Z,99742.91
2019-01-25T13:49:58.196Z,99743.48
2019-01-25T13:52:51.594Z,99738.03
2019-01-25T13:58:32.343Z,99741.39
2019-01-25T14:01:03.734Z,99744.60
2019-01-25T14:03:34.980Z,99763.14
2019-01-25T14:06:27.323Z,99769.44
2019-01-25T14:09:19.122Z,99755.42
2019-01-25T14:12:12.244Z,99740.61
2019-01-25T14:20:31.622Z,99740.53
2019-01-25T14:23:12.150Z,99740.46
2019-01-25T14:25:44.735Z,99723.77
2019-01-25T14:28:55.154Z,99731.20
2019-01-25T14:31:27.110Z,99730.97
2019-01-25T14:33:58.218Z,99732.32
2019-01-25T14:37:10.117Z,99724.56
2019-01-25T14:45:33.883Z,99702.88
2019-01-25T14:48:07.688Z,99698.34
2019-01-25T14:51:17.994Z,99698.34
2019-01-25T14:54:09.436Z,99692.35
2019-01-25T14:56:49.868Z,99702.88
2019-01-25T15:08:42.889Z,99690.73
2019-01-25T15:11:22.248Z,99690.70
2019-01-25T15:14:47.225Z,99700.22
2019-01-25T15:17:28.819Z,99711.47
2019-01-25T15:20:19.016Z,99700.34
2019-01-25T15:26:06.004Z,99702.45
2019-01-25T15:29:10.293Z,99697.63
2019-01-25T15:37:43.618Z,99689.00
2019-01-25T15:40:34.303Z,99686.00
2019-01-25T15:43:15.906Z,99690.13
2019-01-25T15:46:18.511Z,99681.19
2019-01-25T15:48:38.972Z,99681.34
2019-01-25T15:51:29.163Z,99673.05
2019-01-25T15:54:00.261Z,99673.87
2019-01-25T15:57:09.279Z,99672.56
2019-01-25T16:00:00.249Z,99676.71
2019-01-25T16:02:50.433Z,99676.71
2019-01-25T16:05:40.896Z,99690.13
2019-01-25T16:28:53.698Z,99694.31
2019-01-25T16:31:27.865Z,99696.09
2019-01-25T16:34:17.605Z,99702.22
2019-01-25T16:37:07.734Z,99701.88
2019-01-25T16:40:31.625Z,99698.91
2019-01-25T16:49:18.472Z,99705.61
2019-01-25T16:51:51.818Z,99694.49
2019-01-25T16:57:10.342Z,99699.19
2019-01-25T16:59:43.225Z,99695.75
2019-01-25T17:05:27.585Z,99698.84
2019-01-25T17:11:39.252Z,99688.72
2019-01-25T17:14:33.352Z,99688.31
2019-01-25T17:17:32.173Z,99685.08
2019-01-25T17:20:36.712Z,99686.77
2019-01-25T17:22:56.138Z,99689.20
2019-01-25T17:28:46.808Z,99670.66
2019-01-25T17:34:47.128Z,99689.81
2019-01-25T17:40:46.418Z,99696.21
2019-01-25T17:43:12.067Z,99700.38
2019-01-25T17:51:59.263Z,99686.33
2019-01-25T17:57:49.733Z,99671.46
2019-01-25T18:04:02.862Z,99677.51
2019-01-25T18:06:35.450Z,99668.39
2019-01-25T18:09:08.654Z,99664.52
2019-01-25T18:11:39.256Z,99665.77
2019-01-25T18:14:09.473Z,99667.89
2019-01-25T18:16:59.519Z,99674.45
2019-01-25T18:19:49.587Z,99668.89
2019-01-25T18:25:48.885Z,99647.70
2019-01-25T18:28:40.850Z,99649.55
2019-01-25T18:31:16.156Z,99645.17
2019-01-25T18:33:49.096Z,99650.15
2019-01-25T18:36:39.138Z,99644.22
2019-01-25T18:39:47.616Z,99644.22
2019-01-25T18:42:18.314Z,99651.19
2019-01-25T18:45:08.374Z,99651.47
2019-01-25T18:47:57.676Z,99638.25
2019-01-25T18:50:27.960Z,99640.16
2019-01-25T18:53:01.290Z,99639.58
2019-01-25T18:55:51.334Z,99641.94
2019-01-25T18:58:38.296Z,99643.94
2019-01-25T19:01:18.599Z,99637.47
2019-01-25T19:04:13.254Z,99633.39
2019-01-25T19:07:07.125Z,99629.06
2019-01-25T19:09:38.548Z,99635.73
2019-01-25T19:15:33.769Z,99629.13
2019-01-25T19:21:06.604Z,99630.84
2019-01-25T19:23:58.392Z,99627.97
2019-01-25T19:26:59.347Z,99625.09
2019-01-25T19:30:12.467Z,99625.09
2019-01-25T19:33:34.441Z,99625.09
2019-01-25T19:36:13.196Z,99631.72
2019-01-25T19:38:44.271Z,99623.83
2019-01-25T19:41:53.423Z,99600.05
2019-01-25T19:44:38.152Z,99607.59
2019-01-25T19:47:47.816Z,99585.11
2019-01-25T19:53:51.455Z,99600.95
2019-01-25T19:59:51.041Z,99606.06
2019-01-25T20:02:40.346Z,99613.88
2019-01-25T20:05:36.490Z,99610.28
2019-01-25T20:08:27.406Z,99608.08
2019-01-25T20:14:28.621Z,99588.75
2019-01-25T20:17:18.707Z,99591.82
2019-01-25T20:22:49.189Z,99559.31
2019-01-25T20:26:26.705Z,99590.19
2019-01-25T20:29:09.242Z,99571.94
2019-01-25T20:35:44.947Z,99549.84
2019-01-25T20:38:18.602Z,99570.55
2019-01-25T20:41:10.222Z,99570.02
2019-01-25T20:43:46.023Z,99575.28
2019-01-25T20:49:46.317Z,99569.84
2019-01-25T20:55:30.501Z,99567.66
2019-01-25T20:58:41.660Z,99564.39
2019-01-25T21:07:04.712Z,99553.31
2019-01-25T21:12:22.617Z,99552.27
2019-01-25T21:15:13.449Z,99550.47
2019-01-25T21:18:05.465Z,99545.99
2019-01-25T21:20:54.721Z,99536.77
2019-01-25T21:23:44.049Z,99542.68
2019-01-25T21:29:13.895Z,99526.21
2019-01-25T21:31:56.189Z,99531.11
2019-01-25T21:35:21.607Z,99519.05
2019-01-25T21:36:50.857Z,99522.49
2019-01-25T21:39:21.233Z,99517.81
2019-01-25T21:42:11.416Z,99516.42
2019-01-25T21:44:42.016Z,99519.30
2019-01-25T21:50:26.599Z,99504.20
2019-01-25T21:56:12.114Z,99490.58
2019-01-25T21:58:55.338Z,99489.98
2019-01-25T22:02:04.814Z,99498.68
2019-01-25T22:07:42.988Z,99488.88
2019-01-25T22:10:35.237Z,99482.62
2019-01-25T22:13:05.737Z,99484.57
2019-01-25T22:15:38.540Z,99484.63
2019-01-25T22:18:08.762Z,99490.54
2019-01-25T22:21:01.858Z,99491.48
2019-01-25T22:23:53.817Z,99479.00
2019-01-25T22:26:48.283Z,99481.78
2019-01-25T22:29:18.833Z,99481.72
2019-01-25T22:31:53.293Z,99487.16
2019-01-25T22:34:26.140Z,99484.78
2019-01-25T22:36:58.643Z,99475.46
2019-01-25T22:39:29.215Z,99470.07
2019-01-25T22:42:21.939Z,99463.17
2019-01-25T22:44:36.981Z,99462.33
2019-01-25T22:47:29.286Z,99464.12
2019-01-25T22:50:18.527Z,99459.33
2019-01-25T22:55:56.210Z,99466.59
2019-01-25T22:59:06.925Z,99442.51
2019-01-25T23:01:37.324Z,99440.44
2019-01-25T23:04:47.933Z,99432.42
2019-01-25T23:07:40.817Z,99435.38
2019-01-25T23:13:24.065Z,99433.08
2019-01-25T23:16:13.034Z,99427.30
2019-01-25T23:18:48.608Z,99430.30
2019-01-25T23:24:20.120Z,99437.72
2019-01-25T23:27:09.404Z,99440.29
2019-01-25T23:29:59.926Z,99440.56
2019-01-25T23:32:52.319Z,99437.48
2019-01-25T23:35:41.248Z,99440.25
2019-01-25T23:38:30.539Z,99438.30
2019-01-25T23:41:01.587Z,99431.77
2019-01-25T23:44:11.084Z,99418.30
2019-01-25T23:47:00.300Z,99416.29
2019-01-25T23:49:42.869Z,99408.05
2019-01-25T23:52:03.888Z,99386.16
2019-01-25T23:54:36.808Z,99400.47
2019-01-25T23:57:28.447Z,99399.79
